sensor_id;sensor_type;location;lat;lon;timestamp;pressure;altitude;pressure_sealevel;temperature;humidity
56600;BME280;51832;48.152;11.530;2023-03-31T00:04:37;95074.78;;;13.66;63.36
56600;BME280;51832;48.152;11.530;2023-03-31T00:09:37;95067.56;;;13.61;63.26
56600;BME280;51832;48.152;11.530;2023-03-31T00:14:40;95052.81;;;13.65;63.37
56600;BME280;51832;48.152;11.530;2023-03-31T00:19:41;95048.00;;;13.89;61.90
56600;BME280;51832;48.152;11.530;2023-03-31T00:24:41;95026.25;;;13.82;61.85
56600;BME280;51832;48.152;11.530;2023-03-31T00:29:42;95026.28;;;13.87;61.46
56600;BME280;51832;48.152;11.530;2023-03-31T00:34:42;95027.09;;;14.19;60.81
56600;BME280;51832;48.152;11.530;2023-03-31T00:39:45;95008.09;;;13.96;61.14
56600;BME280;51832;48.152;11.530;2023-03-31T00:50:26;94993.13;;;14.06;61.10
56600;BME280;51832;48.152;11.530;2023-03-31T00:55:34;94977.56;;;14.15;60.68
56600;BME280;51832;48.152;11.530;2023-03-31T01:00:35;94988.44;;;14.18;60.08
56600;BME280;51832;48.152;11.530;2023-03-31T01:05:42;94981.91;;;13.94;60.84
56600;BME280;51832;48.152;11.530;2023-03-31T01:10:50;94964.38;;;14.25;59.95
56600;BME280;51832;48.152;11.530;2023-03-31T01:15:52;94959.63;;;14.27;60.05
56600;BME280;51832;48.152;11.530;2023-03-31T01:32:00;94935.06;;;14.32;59.08
56600;BME280;51832;48.152;11.530;2023-03-31T01:48:14;94913.63;;;14.33;58.81
56600;BME280;51832;48.152;11.530;2023-03-31T01:58:23;94889.03;;;13.85;60.00
56600;BME280;51832;48.152;11.530;2023-03-31T02:03:30;94886.69;;;13.89;60.36
56600;BME280;51832;48.152;11.530;2023-03-31T02:08:37;94878.00;;;13.99;59.59
56600;BME280;51832;48.152;11.530;2023-03-31T02:13:41;94877.34;;;13.76;60.56
56600;BME280;51832;48.152;11.530;2023-03-31T02:18:45;94859.28;;;14.10;59.07
56600;BME280;51832;48.152;11.530;2023-03-31T02:23:48;94861.50;;;14.34;58.88
56600;BME280;51832;48.152;11.530;2023-03-31T02:28:50;94846.84;;;14.06;59.74
56600;BME280;51832;48.152;11.530;2023-03-31T02:33:51;94853.69;;;14.02;59.81
56600;BME280;51832;48.152;11.530;2023-03-31T02:38:58;94852.13;;;14.11;59.47
56600;BME280;51832;48.152;11.530;2023-03-31T02:44:01;94862.66;;;14.01;60.30
56600;BME280;51832;48.152;11.530;2023-03-31T02:49:05;94875.84;;;13.91;60.76
56600;BME280;51832;48.152;11.530;2023-03-31T02:59:41;94862.06;;;13.88;60.62
56600;BME280;51832;48.152;11.530;2023-03-31T03:10:02;94838.69;;;14.17;60.21
56600;BME280;51832;48.152;11.530;2023-03-31T03:20:29;94838.34;;;14.09;61.16
56600;BME280;51832;48.152;11.530;2023-03-31T03:25:33;94853.63;;;13.92;61.95
56600;BME280;51832;48.152;11.530;2023-03-31T03:30:34;94859.97;;;13.91;62.43
56600;BME280;51832;48.152;11.530;2023-03-31T03:35:34;94865.44;;;13.74;63.65
56600;BME280;51832;48.152;11.530;2023-03-31T03:40:35;94875.25;;;13.83;63.95
56600;BME280;51832;48.152;11.530;2023-03-31T03:45:35;94887.19;;;13.17;67.88
56600;BME280;51832;48.152;11.530;2023-03-31T03:50:36;94879.09;;;13.02;69.65
56600;BME280;51832;48.152;11.530;2023-03-31T03:55:36;94864.69;;;12.82;71.65
56600;BME280;51832;48.152;11.530;2023-03-31T04:00:37;94840.75;;;12.94;72.19
56600;BME280;51832;48.152;11.530;2023-03-31T04:05:37;94827.00;;;12.92;72.51
56600;BME280;51832;48.152;11.530;2023-03-31T04:10:43;94819.78;;;13.46;71.62
56600;BME280;51832;48.152;11.530;2023-03-31T04:15:44;94806.06;;;13.49;71.71
56600;BME280;51832;48.152;11.530;2023-03-31T04:20:45;94802.34;;;13.45;72.20
56600;BME280;51832;48.152;11.530;2023-03-31T04:25:53;94790.78;;;13.57;71.91
56600;BME280;51832;48.152;11.530;2023-03-31T04:30:54;94772.63;;;13.75;70.89
56600;BME280;51832;48.152;11.530;2023-03-31T04:35:58;94759.75;;;13.89;71.06
56600;BME280;51832;48.152;11.530;2023-03-31T04:41:05;94736.38;;;14.69;78.68
56600;BME280;51832;48.152;11.530;2023-03-31T04:46:07;94743.94;;;16.31;70.23
56600;BME280;51832;48.152;11.530;2023-03-31T04:51:07;94742.44;;;16.64;65.06
56600;BME280;51832;48.152;11.530;2023-03-31T04:56:08;94716.91;;;17.31;60.78
56600;BME280;51832;48.152;11.530;2023-03-31T05:01:09;94665.28;;;17.80;61.10
56600;BME280;51832;48.152;11.530;2023-03-31T05:06:15;94636.41;;;17.49;58.49
56600;BME280;51832;48.152;11.530;2023-03-31T05:11:16;94632.78;;;16.24;62.05
56600;BME280;51832;48.152;11.530;2023-03-31T05:16:17;94625.09;;;15.14;65.81
56600;BME280;51832;48.152;11.530;2023-03-31T05:21:19;94601.63;;;14.62;68.31
56600;BME280;51832;48.152;11.530;2023-03-31T05:26:21;94579.38;;;14.38;69.06
56600;BME280;51832;48.152;11.530;2023-03-31T05:31:24;94585.94;;;13.59;72.58
56600;BME280;51832;48.152;11.530;2023-03-31T05:36:25;94576.41;;;13.48;73.11
56600;BME280;51832;48.152;11.530;2023-03-31T05:41:26;94553.19;;;13.85;71.82
56600;BME280;51832;48.152;11.530;2023-03-31T05:46:27;94520.94;;;13.73;71.59
56600;BME280;51832;48.152;11.530;2023-03-31T05:51:27;94505.59;;;13.75;72.18
56600;BME280;51832;48.152;11.530;2023-03-31T05:56:28;94494.94;;;13.20;74.25
56600;BME280;51832;48.152;11.530;2023-03-31T06:01:28;94495.78;;;13.25;73.53
56600;BME280;51832;48.152;11.530;2023-03-31T06:06:29;94477.03;;;13.62;73.00
56600;BME280;51832;48.152;11.530;2023-03-31T06:11:29;94459.31;;;13.37;73.17
56600;BME280;51832;48.152;11.530;2023-03-31T06:16:30;94441.06;;;13.41;74.04
56600;BME280;51832;48.152;11.530;2023-03-31T06:21:31;94411.22;;;13.45;73.86
56600;BME280;51832;48.152;11.530;2023-03-31T06:26:31;94414.06;;;13.95;72.61
56600;BME280;51832;48.152;11.530;2023-03-31T06:31:32;94401.63;;;14.15;71.12
56600;BME280;51832;48.152;11.530;2023-03-31T06:36:32;94396.09;;;13.97;71.99
56600;BME280;51832;48.152;11.530;2023-03-31T06:41:33;94386.06;;;13.83;71.83
56600;BME280;51832;48.152;11.530;2023-03-31T06:46:33;94386.81;;;14.14;71.51
56600;BME280;51832;48.152;11.530;2023-03-31T06:51:33;94376.94;;;14.40;70.31
56600;BME280;51832;48.152;11.530;2023-03-31T06:56:34;94389.38;;;14.40;69.65
56600;BME280;51832;48.152;11.530;2023-03-31T07:01:34;94403.44;;;14.25;69.89
56600;BME280;51832;48.152;11.530;2023-03-31T07:06:36;94443.69;;;14.02;70.69
56600;BME280;51832;48.152;11.530;2023-03-31T07:11:36;94495.00;;;14.21;70.37
56600;BME280;51832;48.152;11.530;2023-03-31T07:16:37;94496.88;;;13.65;72.35
56600;BME280;51832;48.152;11.530;2023-03-31T07:21:37;94535.72;;;13.64;73.62
56600;BME280;51832;48.152;11.530;2023-03-31T07:26:38;94556.91;;;13.90;72.02
56600;BME280;51832;48.152;11.530;2023-03-31T07:31:38;94554.50;;;14.08;72.23
56600;BME280;51832;48.152;11.530;2023-03-31T07:36:39;94504.78;;;14.46;71.51
56600;BME280;51832;48.152;11.530;2023-03-31T07:41:39;94479.06;;;14.51;71.92
56600;BME280;51832;48.152;11.530;2023-03-31T07:46:40;94471.13;;;14.62;71.96
56600;BME280;51832;48.152;11.530;2023-03-31T07:51:41;94461.28;;;14.72;71.27
56600;BME280;51832;48.152;11.530;2023-03-31T07:56:42;94423.28;;;14.92;70.67
56600;BME280;51832;48.152;11.530;2023-03-31T08:01:42;94425.03;;;15.17;70.60
56600;BME280;51832;48.152;11.530;2023-03-31T08:06:42;94391.38;;;15.12;70.74
56600;BME280;51832;48.152;11.530;2023-03-31T08:11:43;94377.59;;;15.15;69.77
56600;BME280;51832;48.152;11.530;2023-03-31T08:16:43;94374.19;;;15.05;70.58
56600;BME280;51832;48.152;11.530;2023-03-31T08:21:44;94388.31;;;14.46;71.90
56600;BME280;51832;48.152;11.530;2023-03-31T08:26:44;94380.66;;;14.29;72.99
56600;BME280;51832;48.152;11.530;2023-03-31T08:31:45;94343.41;;;14.20;73.39
56600;BME280;51832;48.152;11.530;2023-03-31T08:36:45;94360.78;;;14.37;72.83
56600;BME280;51832;48.152;11.530;2023-03-31T08:47:00;94392.22;;;13.23;70.65
56600;BME280;51832;48.152;11.530;2023-03-31T08:52:04;94443.19;;;13.24;72.64
56600;BME280;51832;48.152;11.530;2023-03-31T08:57:31;94482.81;;;13.24;68.71
56600;BME280;51832;48.152;11.530;2023-03-31T09:13:28;94434.22;;;13.65;69.65
56600;BME280;51832;48.152;11.530;2023-03-31T09:18:35;94423.88;;;13.89;68.42
56600;BME280;51832;48.152;11.530;2023-03-31T09:23:47;94412.69;;;14.33;67.41
56600;BME280;51832;48.152;11.530;2023-03-31T09:28:51;94390.69;;;14.42;67.22
56600;BME280;51832;48.152;11.530;2023-03-31T09:33:56;94388.91;;;14.87;64.94
56600;BME280;51832;48.152;11.530;2023-03-31T09:38:58;94376.22;;;15.18;64.04
56600;BME280;51832;48.152;11.530;2023-03-31T09:43:59;94368.88;;;14.66;63.26
56600;BME280;51832;48.152;11.530;2023-03-31T09:49:08;94354.97;;;15.28;62.42
56600;BME280;51832;48.152;11.530;2023-03-31T09:54:18;94365.69;;;14.69;63.39
56600;BME280;51832;48.152;11.530;2023-03-31T09:59:34;94368.91;;;15.05;63.04
56600;BME280;51832;48.152;11.530;2023-03-31T10:04:44;94364.13;;;15.75;61.72
56600;BME280;51832;48.152;11.530;2023-03-31T10:09:45;94327.56;;;15.09;62.38
56600;BME280;51832;48.152;11.530;2023-03-31T10:14:47;94323.94;;;15.62;61.38
56600;BME280;51832;48.152;11.530;2023-03-31T10:19:51;94328.53;;;15.52;59.74
56600;BME280;51832;48.152;11.530;2023-03-31T10:24:52;94326.41;;;15.83;60.68
56600;BME280;51832;48.152;11.530;2023-03-31T10:30:03;94304.84;;;16.32;59.69
56600;BME280;51832;48.152;11.530;2023-03-31T10:35:24;94300.84;;;16.34;60.59
56600;BME280;51832;48.152;11.530;2023-03-31T10:40:27;94274.28;;;16.77;59.73
56600;BME280;51832;48.152;11.530;2023-03-31T10:45:30;94274.28;;;17.56;57.53
56600;BME280;51832;48.152;11.530;2023-03-31T10:50:35;94281.47;;;16.34;58.92
56600;BME280;51832;48.152;11.530;2023-03-31T11:06:14;94242.66;;;16.57;58.63
56600;BME280;51832;48.152;11.530;2023-03-31T11:22:14;94296.81;;;15.71;62.29
56600;BME280;51832;48.152;11.530;2023-03-31T11:42:49;94278.34;;;12.84;66.45
56600;BME280;51832;48.152;11.530;2023-03-31T11:47:54;94262.50;;;12.99;66.79
56600;BME280;51832;48.152;11.530;2023-03-31T11:53:06;94251.31;;;13.63;65.38
56600;BME280;51832;48.152;11.530;2023-03-31T12:08:38;94161.53;;;14.41;62.16
56600;BME280;51832;48.152;11.530;2023-03-31T12:24:21;94153.09;;;15.21;60.62
56600;BME280;51832;48.152;11.530;2023-03-31T12:29:29;94172.03;;;15.09;61.27
56600;BME280;51832;48.152;11.530;2023-03-31T12:34:31;94174.50;;;15.29;60.35
56600;BME280;51832;48.152;11.530;2023-03-31T12:45:26;94168.09;;;15.07;59.34
56600;BME280;51832;48.152;11.530;2023-03-31T12:55:40;94173.88;;;14.85;59.85
56600;BME280;51832;48.152;11.530;2023-03-31T13:01:15;94161.44;;;15.09;57.96
56600;BME280;51832;48.152;11.530;2023-03-31T13:16:37;94181.50;;;14.57;47.13
56600;BME280;51832;48.152;11.530;2023-03-31T13:21:55;94263.78;;;14.17;47.57
56600;BME280;51832;48.152;11.530;2023-03-31T13:26:57;94091.75;;;14.61;46.47
56600;BME280;51832;48.152;11.530;2023-03-31T13:53:35;94149.72;;;16.57;43.84
56600;BME280;51832;48.152;11.530;2023-03-31T13:59:25;94165.88;;;15.67;45.05
56600;BME280;51832;48.152;11.530;2023-03-31T14:09:33;94150.00;;;15.14;49.56
56600;BME280;51832;48.152;11.530;2023-03-31T14:14:39;94162.75;;;15.12;50.66
56600;BME280;51832;48.152;11.530;2023-03-31T14:41:15;94264.28;;;13.55;62.28
56600;BME280;51832;48.152;11.530;2023-03-31T14:46:20;94233.34;;;11.35;66.68
56600;BME280;51832;48.152;11.530;2023-03-31T14:51:27;94244.56;;;11.16;66.43
56600;BME280;51832;48.152;11.530;2023-03-31T14:56:34;94240.72;;;11.33;69.52
56600;BME280;51832;48.152;11.530;2023-03-31T15:01:37;94193.41;;;11.54;68.75
56600;BME280;51832;48.152;11.530;2023-03-31T15:06:43;94169.88;;;12.30;64.84
56600;BME280;51832;48.152;11.530;2023-03-31T15:11:46;94146.00;;;13.31;62.23
56600;BME280;51832;48.152;11.530;2023-03-31T15:16:49;94132.59;;;14.16;61.13
56600;BME280;51832;48.152;11.530;2023-03-31T15:21:58;94141.63;;;15.31;55.93
56600;BME280;51832;48.152;11.530;2023-03-31T15:27:31;94112.94;;;16.31;49.68
56600;BME280;51832;48.152;11.530;2023-03-31T15:32:37;94135.63;;;16.24;48.11
56600;BME280;51832;48.152;11.530;2023-03-31T15:37:40;94122.75;;;15.98;48.72
56600;BME280;51832;48.152;11.530;2023-03-31T15:42:42;94133.66;;;14.78;51.38
56600;BME280;51832;48.152;11.530;2023-03-31T15:47:52;94144.66;;;14.27;54.21
56600;BME280;51832;48.152;11.530;2023-03-31T15:52:54;94135.63;;;14.33;54.51
56600;BME280;51832;48.152;11.530;2023-03-31T15:57:59;94146.00;;;14.24;53.82
56600;BME280;51832;48.152;11.530;2023-03-31T16:03:01;94138.16;;;15.06;51.68
56600;BME280;51832;48.152;11.530;2023-03-31T16:08:03;94141.44;;;14.69;51.29
56600;BME280;51832;48.152;11.530;2023-03-31T16:13:06;94112.63;;;16.00;47.73
56600;BME280;51832;48.152;11.530;2023-03-31T16:18:14;94105.00;;;16.13;46.79
56600;BME280;51832;48.152;11.530;2023-03-31T16:23:23;94104.25;;;15.93;46.58
56600;BME280;51832;48.152;11.530;2023-03-31T16:28:30;94123.03;;;15.54;47.52
56600;BME280;51832;48.152;11.530;2023-03-31T16:33:51;94123.69;;;14.99;50.28
56600;BME280;51832;48.152;11.530;2023-03-31T16:38:53;94141.13;;;14.76;50.75
56600;BME280;51832;48.152;11.530;2023-03-31T16:43:54;94148.50;;;14.79;50.54
56600;BME280;51832;48.152;11.530;2023-03-31T16:48:54;94161.59;;;14.26;52.61
56600;BME280;51832;48.152;11.530;2023-03-31T16:53:55;94182.03;;;14.20;52.70
56600;BME280;51832;48.152;11.530;2023-03-31T16:58:55;94303.75;;;11.50;65.47
56600;BME280;51832;48.152;11.530;2023-03-31T17:03:56;94250.78;;;10.99;71.51
56600;BME280;51832;48.152;11.530;2023-03-31T17:08:56;94244.97;;;10.92;75.34
56600;BME280;51832;48.152;11.530;2023-03-31T17:13:57;94243.13;;;10.98;75.02
56600;BME280;51832;48.152;11.530;2023-03-31T17:18:59;94229.06;;;10.82;76.31
56600;BME280;51832;48.152;11.530;2023-03-31T17:23:59;94225.03;;;10.69;76.00
56600;BME280;51832;48.152;11.530;2023-03-31T17:29:00;94216.16;;;10.76;74.58
56600;BME280;51832;48.152;11.530;2023-03-31T17:34:00;94256.41;;;10.76;73.97
56600;BME280;51832;48.152;11.530;2023-03-31T17:39:02;94239.16;;;10.95;73.92
56600;BME280;51832;48.152;11.530;2023-03-31T17:44:04;94237.78;;;10.51;74.55
56600;BME280;51832;48.152;11.530;2023-03-31T17:49:06;94230.97;;;10.87;73.31
56600;BME280;51832;48.152;11.530;2023-03-31T17:54:07;94234.69;;;10.96;72.29
56600;BME280;51832;48.152;11.530;2023-03-31T17:59:07;94249.09;;;11.20;70.68
56600;BME280;51832;48.152;11.530;2023-03-31T18:04:10;94229.44;;;10.96;70.77
56600;BME280;51832;48.152;11.530;2023-03-31T18:09:10;94260.91;;;11.18;69.57
56600;BME280;51832;48.152;11.530;2023-03-31T18:14:11;94274.03;;;11.13;68.91
56600;BME280;51832;48.152;11.530;2023-03-31T18:19:11;94263.19;;;11.04;68.85
56600;BME280;51832;48.152;11.530;2023-03-31T18:24:11;94283.78;;;10.80;68.50
56600;BME280;51832;48.152;11.530;2023-03-31T18:29:13;94276.72;;;10.86;67.99
56600;BME280;51832;48.152;11.530;2023-03-31T18:34:13;94281.38;;;11.06;66.59
56600;BME280;51832;48.152;11.530;2023-03-31T18:39:15;94290.81;;;11.01;66.22
56600;BME280;51832;48.152;11.530;2023-03-31T18:44:15;94296.81;;;11.34;65.64
56600;BME280;51832;48.152;11.530;2023-03-31T18:49:16;94307.16;;;11.03;66.08
56600;BME280;51832;48.152;11.530;2023-03-31T18:54:19;94304.69;;;10.92;66.37
56600;BME280;51832;48.152;11.530;2023-03-31T18:59:20;94295.94;;;10.54;66.59
56600;BME280;51832;48.152;11.530;2023-03-31T19:04:20;94304.72;;;10.65;65.98
56600;BME280;51832;48.152;11.530;2023-03-31T19:09:21;94301.41;;;10.80;65.47
56600;BME280;51832;48.152;11.530;2023-03-31T19:14:25;94319.25;;;10.46;66.78
56600;BME280;51832;48.152;11.530;2023-03-31T19:19:25;94300.31;;;10.44;67.00
56600;BME280;51832;48.152;11.530;2023-03-31T19:24:26;94290.25;;;10.67;65.95
56600;BME280;51832;48.152;11.530;2023-03-31T19:29:26;94284.09;;;10.84;65.74
56600;BME280;51832;48.152;11.530;2023-03-31T19:34:29;94294.97;;;10.97;64.75
56600;BME280;51832;48.152;11.530;2023-03-31T19:39:29;94293.63;;;10.90;64.10
56600;BME280;51832;48.152;11.530;2023-03-31T19:44:30;94279.50;;;10.69;64.68
56600;BME280;51832;48.152;11.530;2023-03-31T19:49:30;94267.75;;;10.82;64.26
56600;BME280;51832;48.152;11.530;2023-03-31T19:54:31;94278.31;;;10.87;63.54
56600;BME280;51832;48.152;11.530;2023-03-31T19:59:31;94257.63;;;10.63;64.20
56600;BME280;51832;48.152;11.530;2023-03-31T20:04:32;94249.75;;;10.68;62.95
56600;BME280;51832;48.152;11.530;2023-03-31T20:09:33;94242.53;;;10.86;63.04
56600;BME280;51832;48.152;11.530;2023-03-31T20:14:33;94250.78;;;10.99;61.77
56600;BME280;51832;48.152;11.530;2023-03-31T20:19:34;94240.56;;;11.08;61.69
56600;BME280;51832;48.152;11.530;2023-03-31T20:24:34;94244.84;;;10.82;61.51
56600;BME280;51832;48.152;11.530;2023-03-31T20:29:35;94257.69;;;11.06;60.79
56600;BME280;51832;48.152;11.530;2023-03-31T20:34:36;94249.44;;;10.97;60.31
56600;BME280;51832;48.152;11.530;2023-03-31T20:39:36;94231.75;;;11.29;60.08
56600;BME280;51832;48.152;11.530;2023-03-31T20:44:37;94244.03;;;11.14;59.63
56600;BME280;51832;48.152;11.530;2023-03-31T20:49:38;94233.84;;;11.27;59.28
56600;BME280;51832;48.152;11.530;2023-03-31T20:54:38;94243.03;;;11.20;59.61
56600;BME280;51832;48.152;11.530;2023-03-31T20:59:38;94246.47;;;11.25;59.33
56600;BME280;51832;48.152;11.530;2023-03-31T21:04:39;94245.41;;;11.26;59.20
56600;BME280;51832;48.152;11.530;2023-03-31T21:09:39;94254.31;;;11.15;59.08
56600;BME280;51832;48.152;11.530;2023-03-31T21:14:40;94262.00;;;11.27;59.07
56600;BME280;51832;48.152;11.530;2023-03-31T21:19:40;94265.38;;;11.17;59.06
56600;BME280;51832;48.152;11.530;2023-03-31T21:24:41;94255.44;;;11.29;58.77
56600;BME280;51832;48.152;11.530;2023-03-31T21:29:41;94299.63;;;10.85;59.31
56600;BME280;51832;48.152;11.530;2023-03-31T21:34:41;94258.97;;;11.45;58.11
56600;BME280;51832;48.152;11.530;2023-03-31T21:39:42;94270.91;;;11.21;58.21
56600;BME280;51832;48.152;11.530;2023-03-31T21:44:42;94292.31;;;10.92;59.38
56600;BME280;51832;48.152;11.530;2023-03-31T21:49:42;94293.88;;;10.93;59.49
56600;BME280;51832;48.152;11.530;2023-03-31T21:54:43;94277.59;;;10.96;59.58
56600;BME280;51832;48.152;11.530;2023-03-31T21:59:44;94300.13;;;10.82;60.02
56600;BME280;51832;48.152;11.530;2023-03-31T22:04:44;94297.03;;;10.90;60.32
56600;BME280;51832;48.152;11.530;2023-03-31T22:09:44;94277.09;;;10.62;60.73
56600;BME280;51832;48.152;11.530;2023-03-31T22:14:45;94302.63;;;10.67;60.85
56600;BME280;51832;48.152;11.530;2023-03-31T22:19:45;94289.34;;;10.84;61.02
56600;BME280;51832;48.152;11.530;2023-03-31T22:24:46;94298.22;;;10.19;62.55
56600;BME280;51832;48.152;11.530;2023-03-31T22:29:46;94289.22;;;10.37;62.28
56600;BME280;51832;48.152;11.530;2023-03-31T22:34:47;94292.88;;;10.67;61.50
56600;BME280;51832;48.152;11.530;2023-03-31T22:39:47;94288.50;;;10.46;62.13
56600;BME280;51832;48.152;11.530;2023-03-31T22:44:48;94320.59;;;10.48;62.12
56600;BME280;51832;48.152;11.530;2023-03-31T22:49:48;94352.97;;;10.27;63.05
56600;BME280;51832;48.152;11.530;2023-03-31T22:54:49;94314.06;;;10.24;63.93
56600;BME280;51832;48.152;11.530;2023-03-31T22:59:50;94300.06;;;10.45;63.94
56600;BME280;51832;48.152;11.530;2023-03-31T23:04:50;94321.81;;;10.41;65.24
56600;BME280;51832;48.152;11.530;2023-03-31T23:09:50;94311.22;;;10.30;65.54
56600;BME280;51832;48.152;11.530;2023-03-31T23:14:51;94303.00;;;10.22;66.77
56600;BME280;51832;48.152;11.530;2023-03-31T23:19:51;94294.00;;;9.96;67.22
56600;BME280;51832;48.152;11.530;2023-03-31T23:24:52;94320.53;;;9.94;67.42
56600;BME280;51832;48.152;11.530;2023-03-31T23:29:52;94260.38;;;10.20;67.23
56600;BME280;51832;48.152;11.530;2023-03-31T23:34:53;94301.81;;;9.91;67.69
56600;BME280;51832;48.152;11.530;2023-03-31T23:39:53;94285.75;;;10.09;67.82
56600;BME280;51832;48.152;11.530;2023-03-31T23:44:53;94322.53;;;9.87;67.79
56600;BME280;51832;48.152;11.530;2023-03-31T23:49:54;94288.38;;;9.87;68.63
56600;BME280;51832;48.152;11.530;2023-03-31T23:54:55;94303.34;;;9.65;69.33
56600;BME280;51832;48.152;11.530;2023-03-31T23:59:56;94291.19;;;9.81;70.02
